McKinney's Hourly Summary for Thursday, July 5, 2018
Hour Temp
(f)
RH
(%)
Solar Rad.
(MJ/m2)
Rainfall
(in)
Wind
(mph)
7/5/2018 12:00 AM 80 69 0 0 5.72
7/5/2018 1:00 AM 78 73 0 0 3.54
7/5/2018 2:00 AM 77 76 0 0 1.39
7/5/2018 3:00 AM 75 78 0 0 0.3
7/5/2018 4:00 AM 73 80 0 0 0
7/5/2018 5:00 AM 73 85 0 0 0.01
7/5/2018 6:00 AM 72 89 0 0 0.17
7/5/2018 7:00 AM 71 96 0.03 0 0.01
7/5/2018 8:00 AM 74 82 0.38 0 0.11
7/5/2018 9:00 AM 79 74 1.13 0 1.25
7/5/2018 10:00 AM 82 66 1.81 0 1.79
7/5/2018 11:00 AM 84 60 2.23 0 2.81
7/5/2018 12:00 PM 87 54 2.61 0 2.88
7/5/2018 1:00 PM 90 48 2.89 0 2.93
7/5/2018 2:00 PM 92 45 2.87 0 3.22
7/5/2018 3:00 PM 93 43 2.4 0 2.78
7/5/2018 4:00 PM 94 41 2.14 0 3.11
7/5/2018 5:00 PM 94 41 1.43 0 2.41
7/5/2018 6:00 PM 94 40 1.16 0 3.25
7/5/2018 7:00 PM 91 45 0.46 0 2.73
7/5/2018 8:00 PM 89 52 0.27 0 2.75
7/5/2018 9:00 PM 87 55 0.06 0 1.09
7/5/2018 10:00 PM 85 59 0 0 1.19
7/5/2018 11:00 PM 83 62 0 0 0.94
Data Summary 83 63 21.87 0.00 1.93